sensor_id;sensor_type;location;lat;lon;timestamp;temperature;humidity
4874;DHT22;2451;49.970;9.068;2022-12-29T00:02:11;11.70;99.90
4874;DHT22;2451;49.970;9.068;2022-12-29T00:04:37;11.70;99.90
4874;DHT22;2451;49.970;9.068;2022-12-29T00:07:03;11.60;99.90
4874;DHT22;2451;49.970;9.068;2022-12-29T00:09:30;11.70;99.90
4874;DHT22;2451;49.970;9.068;2022-12-29T00:11:56;11.60;99.90
4874;DHT22;2451;49.970;9.068;2022-12-29T00:14:23;11.60;99.90
4874;DHT22;2451;49.970;9.068;2022-12-29T00:17:07;11.70;99.90
4874;DHT22;2451;49.970;9.068;2022-12-29T00:19:33;11.70;99.90
4874;DHT22;2451;49.970;9.068;2022-12-29T00:22:17;11.70;99.90
4874;DHT22;2451;49.970;9.068;2022-12-29T00:25:01;11.70;99.90
4874;DHT22;2451;49.970;9.068;2022-12-29T00:27:31;11.80;99.90
4874;DHT22;2451;49.970;9.068;2022-12-29T00:30:19;11.70;99.90
4874;DHT22;2451;49.970;9.068;2022-12-29T00:33:15;11.70;99.90
4874;DHT22;2451;49.970;9.068;2022-12-29T00:36:04;11.80;99.90
4874;DHT22;2451;49.970;9.068;2022-12-29T00:38:33;11.90;99.90
4874;DHT22;2451;49.970;9.068;2022-12-29T00:41:19;12.00;99.90
4874;DHT22;2451;49.970;9.068;2022-12-29T00:44:03;12.00;99.90
4874;DHT22;2451;49.970;9.068;2022-12-29T00:46:40;12.00;99.90
4874;DHT22;2451;49.970;9.068;2022-12-29T00:49:08;12.10;99.90
4874;DHT22;2451;49.970;9.068;2022-12-29T00:51:52;12.00;99.90
4874;DHT22;2451;49.970;9.068;2022-12-29T00:54:19;12.00;99.90
4874;DHT22;2451;49.970;9.068;2022-12-29T00:56:49;11.90;99.90
4874;DHT22;2451;49.970;9.068;2022-12-29T00:59:15;11.80;99.90
4874;DHT22;2451;49.970;9.068;2022-12-29T01:01:41;11.70;99.90
4874;DHT22;2451;49.970;9.068;2022-12-29T01:04:07;11.60;99.90
4874;DHT22;2451;49.970;9.068;2022-12-29T01:06:35;11.40;99.90
4874;DHT22;2451;49.970;9.068;2022-12-29T01:09:02;11.30;99.90
4874;DHT22;2451;49.970;9.068;2022-12-29T01:11:46;11.20;99.90
4874;DHT22;2451;49.970;9.068;2022-12-29T01:14:12;11.00;99.90
4874;DHT22;2451;49.970;9.068;2022-12-29T01:16:37;11.00;99.90
4874;DHT22;2451;49.970;9.068;2022-12-29T01:19:03;10.90;99.90
4874;DHT22;2451;49.970;9.068;2022-12-29T01:21:29;10.80;99.90
4874;DHT22;2451;49.970;9.068;2022-12-29T01:23:55;10.70;99.90
4874;DHT22;2451;49.970;9.068;2022-12-29T01:26:20;10.60;99.90
4874;DHT22;2451;49.970;9.068;2022-12-29T01:28:46;10.60;99.90
4874;DHT22;2451;49.970;9.068;2022-12-29T01:31:13;10.60;99.90
4874;DHT22;2451;49.970;9.068;2022-12-29T01:33:39;10.50;99.90
4874;DHT22;2451;49.970;9.068;2022-12-29T01:36:07;10.50;99.90
4874;DHT22;2451;49.970;9.068;2022-12-29T01:38:35;10.40;99.90
4874;DHT22;2451;49.970;9.068;2022-12-29T01:41:01;10.40;99.90
4874;DHT22;2451;49.970;9.068;2022-12-29T01:43:46;10.30;99.90
4874;DHT22;2451;49.970;9.068;2022-12-29T01:51:47;10.30;99.90
4874;DHT22;2451;49.970;9.068;2022-12-29T01:54:27;10.40;99.90
4874;DHT22;2451;49.970;9.068;2022-12-29T01:56:55;10.40;99.90
4874;DHT22;2451;49.970;9.068;2022-12-29T01:59:26;10.40;99.90
4874;DHT22;2451;49.970;9.068;2022-12-29T02:01:53;10.30;99.90
4874;DHT22;2451;49.970;9.068;2022-12-29T02:04:19;10.30;99.90
4874;DHT22;2451;49.970;9.068;2022-12-29T02:06:52;10.30;99.90
4874;DHT22;2451;49.970;9.068;2022-12-29T02:09:18;10.30;99.90
4874;DHT22;2451;49.970;9.068;2022-12-29T02:11:44;10.30;99.90
4874;DHT22;2451;49.970;9.068;2022-12-29T02:14:11;10.30;99.90
4874;DHT22;2451;49.970;9.068;2022-12-29T02:30:52;10.50;99.90
4874;DHT22;2451;49.970;9.068;2022-12-29T02:36:40;10.50;99.90
4874;DHT22;2451;49.970;9.068;2022-12-29T02:39:21;10.60;99.90
4874;DHT22;2451;49.970;9.068;2022-12-29T02:42:09;10.60;99.90
4874;DHT22;2451;49.970;9.068;2022-12-29T02:47:51;10.80;99.90
4874;DHT22;2451;49.970;9.068;2022-12-29T02:50:25;10.90;99.90
4874;DHT22;2451;49.970;9.068;2022-12-29T02:53:01;11.00;99.90
4874;DHT22;2451;49.970;9.068;2022-12-29T02:55:27;11.00;99.90
4874;DHT22;2451;49.970;9.068;2022-12-29T03:00:37;11.10;99.90
4874;DHT22;2451;49.970;9.068;2022-12-29T03:08:55;11.10;99.90
4874;DHT22;2451;49.970;9.068;2022-12-29T03:11:27;11.20;99.90
4874;DHT22;2451;49.970;9.068;2022-12-29T03:15:15;11.30;99.90
4874;DHT22;2451;49.970;9.068;2022-12-29T03:17:43;11.30;99.90
4874;DHT22;2451;49.970;9.068;2022-12-29T03:20:17;11.40;99.90
4874;DHT22;2451;49.970;9.068;2022-12-29T03:22:47;11.40;99.90
4874;DHT22;2451;49.970;9.068;2022-12-29T03:25:23;11.40;99.90
4874;DHT22;2451;49.970;9.068;2022-12-29T03:27:55;11.40;99.90
4874;DHT22;2451;49.970;9.068;2022-12-29T03:30:22;11.40;99.90
4874;DHT22;2451;49.970;9.068;2022-12-29T03:32:57;11.40;99.90
4874;DHT22;2451;49.970;9.068;2022-12-29T03:35:25;11.50;99.90
4874;DHT22;2451;49.970;9.068;2022-12-29T03:40:19;11.60;99.90
4874;DHT22;2451;49.970;9.068;2022-12-29T03:42:47;11.60;99.90
4874;DHT22;2451;49.970;9.068;2022-12-29T03:45:13;11.60;99.90
4874;DHT22;2451;49.970;9.068;2022-12-29T03:47:39;11.60;99.90
4874;DHT22;2451;49.970;9.068;2022-12-29T03:50:05;11.60;99.90
4874;DHT22;2451;49.970;9.068;2022-12-29T03:52:31;11.50;99.90
4874;DHT22;2451;49.970;9.068;2022-12-29T03:54:56;11.50;99.90
4874;DHT22;2451;49.970;9.068;2022-12-29T03:57:22;11.50;99.90
4874;DHT22;2451;49.970;9.068;2022-12-29T03:59:47;11.60;99.90
4874;DHT22;2451;49.970;9.068;2022-12-29T04:02:13;11.60;99.90
4874;DHT22;2451;49.970;9.068;2022-12-29T04:04:38;11.60;99.90
4874;DHT22;2451;49.970;9.068;2022-12-29T04:07:04;11.50;99.90
4874;DHT22;2451;49.970;9.068;2022-12-29T04:09:29;11.50;99.90
4874;DHT22;2451;49.970;9.068;2022-12-29T04:11:56;11.60;99.90
4874;DHT22;2451;49.970;9.068;2022-12-29T04:14:22;11.50;99.90
4874;DHT22;2451;49.970;9.068;2022-12-29T04:16:47;11.50;99.90
4874;DHT22;2451;49.970;9.068;2022-12-29T04:19:13;11.50;99.90
4874;DHT22;2451;49.970;9.068;2022-12-29T04:21:38;11.50;99.90
4874;DHT22;2451;49.970;9.068;2022-12-29T04:24:05;11.50;99.90
4874;DHT22;2451;49.970;9.068;2022-12-29T04:26:32;11.50;99.90
4874;DHT22;2451;49.970;9.068;2022-12-29T04:28:57;11.50;99.90
4874;DHT22;2451;49.970;9.068;2022-12-29T04:31:23;11.50;99.90
4874;DHT22;2451;49.970;9.068;2022-12-29T04:33:49;11.50;99.90
4874;DHT22;2451;49.970;9.068;2022-12-29T04:36:14;11.50;99.90
4874;DHT22;2451;49.970;9.068;2022-12-29T04:38:40;11.50;99.90
4874;DHT22;2451;49.970;9.068;2022-12-29T04:41:05;11.50;99.90
4874;DHT22;2451;49.970;9.068;2022-12-29T04:43:31;11.50;99.90
4874;DHT22;2451;49.970;9.068;2022-12-29T04:45:56;11.60;99.90
4874;DHT22;2451;49.970;9.068;2022-12-29T04:48:22;11.60;99.90
4874;DHT22;2451;49.970;9.068;2022-12-29T04:50:48;11.70;99.90
4874;DHT22;2451;49.970;9.068;2022-12-29T04:53:15;11.70;99.90
4874;DHT22;2451;49.970;9.068;2022-12-29T04:55:41;11.70;99.90
4874;DHT22;2451;49.970;9.068;2022-12-29T04:58:06;11.70;99.90
4874;DHT22;2451;49.970;9.068;2022-12-29T05:00:32;11.70;99.90
4874;DHT22;2451;49.970;9.068;2022-12-29T05:02:58;11.70;99.90
4874;DHT22;2451;49.970;9.068;2022-12-29T05:05:24;11.70;99.90
4874;DHT22;2451;49.970;9.068;2022-12-29T05:07:49;11.70;99.90
4874;DHT22;2451;49.970;9.068;2022-12-29T05:10:15;11.80;99.90
4874;DHT22;2451;49.970;9.068;2022-12-29T05:12:41;11.80;99.90
4874;DHT22;2451;49.970;9.068;2022-12-29T05:15:08;11.80;99.90
4874;DHT22;2451;49.970;9.068;2022-12-29T05:17:33;11.80;99.90
4874;DHT22;2451;49.970;9.068;2022-12-29T05:19:59;11.80;99.90
4874;DHT22;2451;49.970;9.068;2022-12-29T05:22:25;11.80;99.90
4874;DHT22;2451;49.970;9.068;2022-12-29T05:24:50;11.80;99.90
4874;DHT22;2451;49.970;9.068;2022-12-29T05:27:16;11.90;99.90
4874;DHT22;2451;49.970;9.068;2022-12-29T05:29:42;11.90;99.90
4874;DHT22;2451;49.970;9.068;2022-12-29T05:32:08;11.90;99.90
4874;DHT22;2451;49.970;9.068;2022-12-29T05:34:34;11.90;99.90
4874;DHT22;2451;49.970;9.068;2022-12-29T05:36:59;11.90;99.90
4874;DHT22;2451;49.970;9.068;2022-12-29T05:39:26;11.90;99.90
4874;DHT22;2451;49.970;9.068;2022-12-29T05:41:51;11.90;99.90
4874;DHT22;2451;49.970;9.068;2022-12-29T05:44:17;11.90;99.90
4874;DHT22;2451;49.970;9.068;2022-12-29T05:46:43;12.00;99.90
4874;DHT22;2451;49.970;9.068;2022-12-29T05:49:09;12.00;99.90
4874;DHT22;2451;49.970;9.068;2022-12-29T05:51:34;12.00;99.90
4874;DHT22;2451;49.970;9.068;2022-12-29T05:54:00;12.00;99.90
4874;DHT22;2451;49.970;9.068;2022-12-29T05:56:25;12.00;99.90
4874;DHT22;2451;49.970;9.068;2022-12-29T05:58:51;11.90;99.90
4874;DHT22;2451;49.970;9.068;2022-12-29T06:01:16;11.90;99.90
4874;DHT22;2451;49.970;9.068;2022-12-29T06:03:42;12.00;99.90
4874;DHT22;2451;49.970;9.068;2022-12-29T06:06:07;12.00;99.90
4874;DHT22;2451;49.970;9.068;2022-12-29T06:08:33;11.90;99.90
4874;DHT22;2451;49.970;9.068;2022-12-29T06:10:59;11.90;99.90
4874;DHT22;2451;49.970;9.068;2022-12-29T06:13:24;12.00;99.90
4874;DHT22;2451;49.970;9.068;2022-12-29T06:15:50;12.10;99.90
4874;DHT22;2451;49.970;9.068;2022-12-29T06:18:16;12.10;99.90
4874;DHT22;2451;49.970;9.068;2022-12-29T06:20:41;12.10;99.90
4874;DHT22;2451;49.970;9.068;2022-12-29T06:23:07;12.10;99.90
4874;DHT22;2451;49.970;9.068;2022-12-29T06:25:33;12.10;99.90
4874;DHT22;2451;49.970;9.068;2022-12-29T06:27:59;12.10;99.90
4874;DHT22;2451;49.970;9.068;2022-12-29T06:30:25;12.10;99.90
4874;DHT22;2451;49.970;9.068;2022-12-29T06:32:51;12.10;99.90
4874;DHT22;2451;49.970;9.068;2022-12-29T06:35:17;12.10;99.90
4874;DHT22;2451;49.970;9.068;2022-12-29T06:37:43;12.10;99.90
4874;DHT22;2451;49.970;9.068;2022-12-29T06:40:09;12.00;99.90
4874;DHT22;2451;49.970;9.068;2022-12-29T06:42:35;12.00;99.90
4874;DHT22;2451;49.970;9.068;2022-12-29T06:45:01;12.00;99.90
4874;DHT22;2451;49.970;9.068;2022-12-29T06:47:26;12.00;99.90
4874;DHT22;2451;49.970;9.068;2022-12-29T06:49:52;12.00;99.90
4874;DHT22;2451;49.970;9.068;2022-12-29T06:52:18;12.00;99.90
4874;DHT22;2451;49.970;9.068;2022-12-29T06:54:43;12.00;99.90
4874;DHT22;2451;49.970;9.068;2022-12-29T06:57:09;12.00;99.90
4874;DHT22;2451;49.970;9.068;2022-12-29T06:59:34;12.00;99.90
4874;DHT22;2451;49.970;9.068;2022-12-29T07:02:00;12.00;99.90
4874;DHT22;2451;49.970;9.068;2022-12-29T07:04:27;12.00;99.90
4874;DHT22;2451;49.970;9.068;2022-12-29T07:06:53;12.00;99.90
4874;DHT22;2451;49.970;9.068;2022-12-29T07:09:19;12.00;99.90
4874;DHT22;2451;49.970;9.068;2022-12-29T07:11:45;12.00;99.90
4874;DHT22;2451;49.970;9.068;2022-12-29T07:14:11;12.00;99.90
4874;DHT22;2451;49.970;9.068;2022-12-29T07:16:36;12.00;99.90
4874;DHT22;2451;49.970;9.068;2022-12-29T07:19:02;12.00;99.90
4874;DHT22;2451;49.970;9.068;2022-12-29T07:21:28;12.10;99.90
4874;DHT22;2451;49.970;9.068;2022-12-29T07:23:54;12.20;99.90
4874;DHT22;2451;49.970;9.068;2022-12-29T07:26:20;12.20;99.90
4874;DHT22;2451;49.970;9.068;2022-12-29T07:28:45;12.20;99.90
4874;DHT22;2451;49.970;9.068;2022-12-29T07:31:16;12.30;99.90
4874;DHT22;2451;49.970;9.068;2022-12-29T07:33:42;12.30;99.90
4874;DHT22;2451;49.970;9.068;2022-12-29T07:36:09;12.30;99.90
4874;DHT22;2451;49.970;9.068;2022-12-29T07:38:34;12.20;99.90
4874;DHT22;2451;49.970;9.068;2022-12-29T07:41:00;12.20;99.90
4874;DHT22;2451;49.970;9.068;2022-12-29T07:43:25;12.10;99.90
4874;DHT22;2451;49.970;9.068;2022-12-29T07:45:51;12.00;99.90
4874;DHT22;2451;49.970;9.068;2022-12-29T07:48:17;12.00;99.90
4874;DHT22;2451;49.970;9.068;2022-12-29T07:50:42;11.90;99.90
4874;DHT22;2451;49.970;9.068;2022-12-29T07:53:08;11.90;99.90
4874;DHT22;2451;49.970;9.068;2022-12-29T07:55:34;11.80;99.90
4874;DHT22;2451;49.970;9.068;2022-12-29T07:57:59;11.80;99.90
4874;DHT22;2451;49.970;9.068;2022-12-29T08:00:25;11.80;99.90
4874;DHT22;2451;49.970;9.068;2022-12-29T08:02:50;11.90;99.90
4874;DHT22;2451;49.970;9.068;2022-12-29T08:05:16;11.90;99.90
4874;DHT22;2451;49.970;9.068;2022-12-29T08:07:43;11.90;99.90
4874;DHT22;2451;49.970;9.068;2022-12-29T08:10:10;11.90;99.90
4874;DHT22;2451;49.970;9.068;2022-12-29T08:12:38;11.90;99.90
4874;DHT22;2451;49.970;9.068;2022-12-29T08:15:04;11.90;99.90
4874;DHT22;2451;49.970;9.068;2022-12-29T08:17:30;11.90;99.90
4874;DHT22;2451;49.970;9.068;2022-12-29T08:19:55;11.90;99.90
4874;DHT22;2451;49.970;9.068;2022-12-29T08:22:22;11.90;99.90
4874;DHT22;2451;49.970;9.068;2022-12-29T08:24:48;11.90;99.90
4874;DHT22;2451;49.970;9.068;2022-12-29T08:27:13;11.90;99.90
4874;DHT22;2451;49.970;9.068;2022-12-29T08:29:39;11.90;99.90
4874;DHT22;2451;49.970;9.068;2022-12-29T08:32:04;11.90;99.90
4874;DHT22;2451;49.970;9.068;2022-12-29T08:34:31;11.90;99.90
4874;DHT22;2451;49.970;9.068;2022-12-29T08:36:56;12.00;99.90
4874;DHT22;2451;49.970;9.068;2022-12-29T08:39:22;12.00;99.90
4874;DHT22;2451;49.970;9.068;2022-12-29T08:41:47;12.10;99.90
4874;DHT22;2451;49.970;9.068;2022-12-29T08:44:13;12.20;99.90
4874;DHT22;2451;49.970;9.068;2022-12-29T08:46:39;12.40;99.90
4874;DHT22;2451;49.970;9.068;2022-12-29T08:49:04;12.60;99.90
4874;DHT22;2451;49.970;9.068;2022-12-29T08:51:30;12.70;99.90
4874;DHT22;2451;49.970;9.068;2022-12-29T08:53:55;12.80;99.90
4874;DHT22;2451;49.970;9.068;2022-12-29T08:56:21;12.80;99.90
4874;DHT22;2451;49.970;9.068;2022-12-29T08:58:49;12.90;99.90
4874;DHT22;2451;49.970;9.068;2022-12-29T09:01:15;13.00;99.90
4874;DHT22;2451;49.970;9.068;2022-12-29T09:03:40;13.10;99.90
4874;DHT22;2451;49.970;9.068;2022-12-29T09:06:06;13.10;99.90
4874;DHT22;2451;49.970;9.068;2022-12-29T09:08:31;13.20;99.90
4874;DHT22;2451;49.970;9.068;2022-12-29T09:11:09;13.30;99.90
4874;DHT22;2451;49.970;9.068;2022-12-29T09:13:35;13.40;99.90
4874;DHT22;2451;49.970;9.068;2022-12-29T09:16:01;13.40;99.90
4874;DHT22;2451;49.970;9.068;2022-12-29T09:18:26;13.50;99.90
4874;DHT22;2451;49.970;9.068;2022-12-29T09:21:00;13.60;99.90
4874;DHT22;2451;49.970;9.068;2022-12-29T09:23:26;13.50;99.90
4874;DHT22;2451;49.970;9.068;2022-12-29T09:25:52;13.50;99.90
4874;DHT22;2451;49.970;9.068;2022-12-29T09:28:18;13.50;99.90
4874;DHT22;2451;49.970;9.068;2022-12-29T09:30:43;13.40;99.90
4874;DHT22;2451;49.970;9.068;2022-12-29T09:33:09;13.30;99.90
4874;DHT22;2451;49.970;9.068;2022-12-29T09:35:34;13.30;99.90
4874;DHT22;2451;49.970;9.068;2022-12-29T09:38:00;13.20;99.90
4874;DHT22;2451;49.970;9.068;2022-12-29T09:40:30;13.20;99.90
4874;DHT22;2451;49.970;9.068;2022-12-29T09:43:18;13.20;99.90
4874;DHT22;2451;49.970;9.068;2022-12-29T09:45:51;13.20;99.90
4874;DHT22;2451;49.970;9.068;2022-12-29T09:48:24;13.20;99.90
4874;DHT22;2451;49.970;9.068;2022-12-29T09:50:58;13.20;99.90
4874;DHT22;2451;49.970;9.068;2022-12-29T09:53:29;13.20;99.90
4874;DHT22;2451;49.970;9.068;2022-12-29T09:55:59;13.40;99.90
4874;DHT22;2451;49.970;9.068;2022-12-29T09:58:36;13.40;99.90
4874;DHT22;2451;49.970;9.068;2022-12-29T10:03:49;13.60;99.90
4874;DHT22;2451;49.970;9.068;2022-12-29T10:06:24;13.50;99.90
4874;DHT22;2451;49.970;9.068;2022-12-29T10:14:29;13.40;99.90
4874;DHT22;2451;49.970;9.068;2022-12-29T10:25:41;13.50;99.90
4874;DHT22;2451;49.970;9.068;2022-12-29T10:28:21;14.00;99.90
4874;DHT22;2451;49.970;9.068;2022-12-29T10:30:48;14.40;99.90
4874;DHT22;2451;49.970;9.068;2022-12-29T10:33:18;14.50;99.90
4874;DHT22;2451;49.970;9.068;2022-12-29T10:35:46;14.50;99.90
4874;DHT22;2451;49.970;9.068;2022-12-29T10:43:24;14.80;99.90
4874;DHT22;2451;49.970;9.068;2022-12-29T10:45:53;14.50;99.90
4874;DHT22;2451;49.970;9.068;2022-12-29T10:48:22;14.20;99.90
4874;DHT22;2451;49.970;9.068;2022-12-29T10:50:49;14.00;99.90
4874;DHT22;2451;49.970;9.068;2022-12-29T10:53:20;13.80;99.90
4874;DHT22;2451;49.970;9.068;2022-12-29T10:55:48;13.60;99.90
4874;DHT22;2451;49.970;9.068;2022-12-29T10:58:15;13.10;99.90
4874;DHT22;2451;49.970;9.068;2022-12-29T11:00:41;12.40;99.90
4874;DHT22;2451;49.970;9.068;2022-12-29T11:06:17;11.30;99.90
4874;DHT22;2451;49.970;9.068;2022-12-29T11:08:56;11.00;99.90
4874;DHT22;2451;49.970;9.068;2022-12-29T11:11:26;10.80;99.90
4874;DHT22;2451;49.970;9.068;2022-12-29T11:14:13;10.70;99.90
4874;DHT22;2451;49.970;9.068;2022-12-29T11:16:39;10.70;99.90
4874;DHT22;2451;49.970;9.068;2022-12-29T11:19:20;10.70;99.90
4874;DHT22;2451;49.970;9.068;2022-12-29T11:21:46;10.80;99.90
4874;DHT22;2451;49.970;9.068;2022-12-29T11:24:23;10.80;99.90
4874;DHT22;2451;49.970;9.068;2022-12-29T11:26:54;10.90;99.90
4874;DHT22;2451;49.970;9.068;2022-12-29T11:29:37;10.90;99.90
4874;DHT22;2451;49.970;9.068;2022-12-29T11:32:32;11.00;99.90
4874;DHT22;2451;49.970;9.068;2022-12-29T11:34:57;11.00;99.90
4874;DHT22;2451;49.970;9.068;2022-12-29T11:37:32;10.90;99.90
4874;DHT22;2451;49.970;9.068;2022-12-29T11:40:18;10.90;99.90
4874;DHT22;2451;49.970;9.068;2022-12-29T11:42:52;10.90;99.90
4874;DHT22;2451;49.970;9.068;2022-12-29T11:45:27;10.80;99.90
4874;DHT22;2451;49.970;9.068;2022-12-29T11:48:18;10.80;99.90
4874;DHT22;2451;49.970;9.068;2022-12-29T11:50:50;10.80;99.90
4874;DHT22;2451;49.970;9.068;2022-12-29T11:53:21;10.80;99.90
4874;DHT22;2451;49.970;9.068;2022-12-29T11:55:56;10.80;99.90
4874;DHT22;2451;49.970;9.068;2022-12-29T11:58:32;10.90;99.90
4874;DHT22;2451;49.970;9.068;2022-12-29T12:01:07;11.30;99.90
4874;DHT22;2451;49.970;9.068;2022-12-29T12:03:38;11.70;99.90
4874;DHT22;2451;49.970;9.068;2022-12-29T12:06:11;11.80;99.90
4874;DHT22;2451;49.970;9.068;2022-12-29T12:08:45;12.10;99.90
4874;DHT22;2451;49.970;9.068;2022-12-29T12:11:18;12.50;99.90
4874;DHT22;2451;49.970;9.068;2022-12-29T12:16:37;13.20;99.90
4874;DHT22;2451;49.970;9.068;2022-12-29T12:19:24;13.00;99.90
4874;DHT22;2451;49.970;9.068;2022-12-29T12:21:56;12.80;99.90
4874;DHT22;2451;49.970;9.068;2022-12-29T12:24:47;12.60;99.90
4874;DHT22;2451;49.970;9.068;2022-12-29T12:27:24;12.40;99.90
4874;DHT22;2451;49.970;9.068;2022-12-29T12:38:11;12.00;99.90
4874;DHT22;2451;49.970;9.068;2022-12-29T12:43:49;12.10;99.90
4874;DHT22;2451;49.970;9.068;2022-12-29T12:49:16;12.10;99.90
4874;DHT22;2451;49.970;9.068;2022-12-29T12:51:50;12.10;99.90
4874;DHT22;2451;49.970;9.068;2022-12-29T12:54:30;12.10;99.90
4874;DHT22;2451;49.970;9.068;2022-12-29T12:57:11;12.10;99.90
4874;DHT22;2451;49.970;9.068;2022-12-29T13:02:21;12.00;99.90
4874;DHT22;2451;49.970;9.068;2022-12-29T13:05:07;12.00;99.90
4874;DHT22;2451;49.970;9.068;2022-12-29T13:07:50;12.00;99.90
4874;DHT22;2451;49.970;9.068;2022-12-29T13:21:34;12.00;99.90
4874;DHT22;2451;49.970;9.068;2022-12-29T13:24:12;11.90;99.90
4874;DHT22;2451;49.970;9.068;2022-12-29T13:30:12;11.90;99.90
4874;DHT22;2451;49.970;9.068;2022-12-29T13:38:39;12.00;99.90
4874;DHT22;2451;49.970;9.068;2022-12-29T13:41:14;12.00;99.90
4874;DHT22;2451;49.970;9.068;2022-12-29T13:43:43;12.10;99.90
4874;DHT22;2451;49.970;9.068;2022-12-29T13:46:28;12.10;99.90
4874;DHT22;2451;49.970;9.068;2022-12-29T13:48:59;12.10;99.90
4874;DHT22;2451;49.970;9.068;2022-12-29T13:51:26;12.10;99.90
4874;DHT22;2451;49.970;9.068;2022-12-29T14:02:31;12.20;99.90
4874;DHT22;2451;49.970;9.068;2022-12-29T14:05:25;12.20;99.90
4874;DHT22;2451;49.970;9.068;2022-12-29T14:08:05;12.20;99.90
4874;DHT22;2451;49.970;9.068;2022-12-29T14:10:38;12.10;99.90
4874;DHT22;2451;49.970;9.068;2022-12-29T14:13:19;12.10;99.90
4874;DHT22;2451;49.970;9.068;2022-12-29T14:15:51;12.10;99.90
4874;DHT22;2451;49.970;9.068;2022-12-29T14:18:20;12.10;99.90
4874;DHT22;2451;49.970;9.068;2022-12-29T14:28:41;12.10;99.90
4874;DHT22;2451;49.970;9.068;2022-12-29T14:47:20;12.00;99.90
4874;DHT22;2451;49.970;9.068;2022-12-29T14:49:47;12.00;99.90
4874;DHT22;2451;49.970;9.068;2022-12-29T14:52:22;12.00;99.90
4874;DHT22;2451;49.970;9.068;2022-12-29T14:54:51;12.00;99.90
4874;DHT22;2451;49.970;9.068;2022-12-29T14:57:42;12.00;99.90
4874;DHT22;2451;49.970;9.068;2022-12-29T15:00:24;11.90;99.90
4874;DHT22;2451;49.970;9.068;2022-12-29T15:05:36;11.80;99.90
4874;DHT22;2451;49.970;9.068;2022-12-29T15:08:04;11.90;99.90
4874;DHT22;2451;49.970;9.068;2022-12-29T15:10:40;11.80;99.90
4874;DHT22;2451;49.970;9.068;2022-12-29T15:13:15;11.70;99.90
4874;DHT22;2451;49.970;9.068;2022-12-29T15:15:41;11.60;99.90
4874;DHT22;2451;49.970;9.068;2022-12-29T15:20:53;11.50;99.90
4874;DHT22;2451;49.970;9.068;2022-12-29T15:23:19;11.40;99.90
4874;DHT22;2451;49.970;9.068;2022-12-29T15:25:54;11.40;99.90
4874;DHT22;2451;49.970;9.068;2022-12-29T15:28:21;11.30;99.90
4874;DHT22;2451;49.970;9.068;2022-12-29T15:31:19;11.20;99.90
4874;DHT22;2451;49.970;9.068;2022-12-29T15:33:49;11.20;99.90
4874;DHT22;2451;49.970;9.068;2022-12-29T15:36:24;11.10;99.90
4874;DHT22;2451;49.970;9.068;2022-12-29T15:38:51;11.10;99.90
4874;DHT22;2451;49.970;9.068;2022-12-29T15:41:40;11.00;99.90
4874;DHT22;2451;49.970;9.068;2022-12-29T15:47:38;11.00;99.90
4874;DHT22;2451;49.970;9.068;2022-12-29T15:50:06;10.90;99.90
4874;DHT22;2451;49.970;9.068;2022-12-29T15:52:34;10.90;99.90
4874;DHT22;2451;49.970;9.068;2022-12-29T15:55:01;10.90;99.90
4874;DHT22;2451;49.970;9.068;2022-12-29T15:57:37;10.80;99.90
4874;DHT22;2451;49.970;9.068;2022-12-29T16:00:04;10.80;99.90
4874;DHT22;2451;49.970;9.068;2022-12-29T16:02:30;10.70;99.90
4874;DHT22;2451;49.970;9.068;2022-12-29T16:04:56;10.70;99.90
4874;DHT22;2451;49.970;9.068;2022-12-29T16:07:28;10.60;99.90
4874;DHT22;2451;49.970;9.068;2022-12-29T16:10:03;10.60;99.90
4874;DHT22;2451;49.970;9.068;2022-12-29T16:12:35;10.60;99.90
4874;DHT22;2451;49.970;9.068;2022-12-29T16:15:04;10.50;99.90
4874;DHT22;2451;49.970;9.068;2022-12-29T16:17:33;10.50;99.90
4874;DHT22;2451;49.970;9.068;2022-12-29T16:20:20;10.50;99.90
4874;DHT22;2451;49.970;9.068;2022-12-29T16:22:53;10.40;99.90
4874;DHT22;2451;49.970;9.068;2022-12-29T16:25:32;10.40;99.90
4874;DHT22;2451;49.970;9.068;2022-12-29T16:28:00;10.30;99.90
4874;DHT22;2451;49.970;9.068;2022-12-29T16:30:31;10.30;99.90
4874;DHT22;2451;49.970;9.068;2022-12-29T16:32:59;10.20;99.90
4874;DHT22;2451;49.970;9.068;2022-12-29T16:35:46;10.20;99.90
4874;DHT22;2451;49.970;9.068;2022-12-29T16:38:18;10.20;99.90
4874;DHT22;2451;49.970;9.068;2022-12-29T16:40:55;10.20;99.90
4874;DHT22;2451;49.970;9.068;2022-12-29T16:43:32;10.10;99.90
4874;DHT22;2451;49.970;9.068;2022-12-29T16:48:30;10.00;99.90
4874;DHT22;2451;49.970;9.068;2022-12-29T16:51:05;10.00;99.90
4874;DHT22;2451;49.970;9.068;2022-12-29T16:53:37;10.00;99.90
4874;DHT22;2451;49.970;9.068;2022-12-29T16:56:08;10.00;99.90
4874;DHT22;2451;49.970;9.068;2022-12-29T16:58:38;9.90;99.90
4874;DHT22;2451;49.970;9.068;2022-12-29T17:01:06;9.90;99.90
4874;DHT22;2451;49.970;9.068;2022-12-29T17:03:45;9.90;99.90
4874;DHT22;2451;49.970;9.068;2022-12-29T17:06:17;9.90;99.90
4874;DHT22;2451;49.970;9.068;2022-12-29T17:08:44;9.90;99.90
4874;DHT22;2451;49.970;9.068;2022-12-29T17:11:33;9.90;99.90
4874;DHT22;2451;49.970;9.068;2022-12-29T17:14:42;9.90;99.90
4874;DHT22;2451;49.970;9.068;2022-12-29T17:19:42;9.90;99.90
4874;DHT22;2451;49.970;9.068;2022-12-29T17:22:16;9.90;99.90
4874;DHT22;2451;49.970;9.068;2022-12-29T17:24:42;9.90;99.90
4874;DHT22;2451;49.970;9.068;2022-12-29T17:27:45;9.90;99.90
4874;DHT22;2451;49.970;9.068;2022-12-29T17:30:11;9.90;99.90
4874;DHT22;2451;49.970;9.068;2022-12-29T17:32:38;9.80;99.90
4874;DHT22;2451;49.970;9.068;2022-12-29T17:35:05;9.90;99.90
4874;DHT22;2451;49.970;9.068;2022-12-29T17:37:36;9.90;99.90
4874;DHT22;2451;49.970;9.068;2022-12-29T17:40:03;9.80;99.90
4874;DHT22;2451;49.970;9.068;2022-12-29T17:42:29;9.80;99.90
4874;DHT22;2451;49.970;9.068;2022-12-29T17:44:58;9.80;99.90
4874;DHT22;2451;49.970;9.068;2022-12-29T17:47:23;9.90;99.90
4874;DHT22;2451;49.970;9.068;2022-12-29T17:49:49;9.80;99.90
4874;DHT22;2451;49.970;9.068;2022-12-29T17:52:15;9.90;99.90
4874;DHT22;2451;49.970;9.068;2022-12-29T17:54:51;9.90;99.90
4874;DHT22;2451;49.970;9.068;2022-12-29T17:57:19;9.90;99.90
4874;DHT22;2451;49.970;9.068;2022-12-29T17:59:44;9.90;99.90
4874;DHT22;2451;49.970;9.068;2022-12-29T18:02:28;9.90;99.90
4874;DHT22;2451;49.970;9.068;2022-12-29T18:04:55;9.90;99.90
4874;DHT22;2451;49.970;9.068;2022-12-29T18:07:23;10.00;99.90
4874;DHT22;2451;49.970;9.068;2022-12-29T18:09:49;10.00;99.90
4874;DHT22;2451;49.970;9.068;2022-12-29T18:12:40;10.00;99.90
4874;DHT22;2451;49.970;9.068;2022-12-29T18:15:15;10.00;99.90
4874;DHT22;2451;49.970;9.068;2022-12-29T18:17:41;9.90;99.90
4874;DHT22;2451;49.970;9.068;2022-12-29T18:20:07;10.00;99.90
4874;DHT22;2451;49.970;9.068;2022-12-29T18:22:32;10.00;99.90
4874;DHT22;2451;49.970;9.068;2022-12-29T18:24:58;10.00;99.90
4874;DHT22;2451;49.970;9.068;2022-12-29T18:27:25;10.00;99.90
4874;DHT22;2451;49.970;9.068;2022-12-29T18:29:50;10.00;99.90
4874;DHT22;2451;49.970;9.068;2022-12-29T18:32:17;10.00;99.90
4874;DHT22;2451;49.970;9.068;2022-12-29T18:34:42;10.00;99.90
4874;DHT22;2451;49.970;9.068;2022-12-29T18:37:09;10.10;99.90
4874;DHT22;2451;49.970;9.068;2022-12-29T18:39:35;10.10;99.90
4874;DHT22;2451;49.970;9.068;2022-12-29T18:42:02;10.10;99.90
4874;DHT22;2451;49.970;9.068;2022-12-29T18:44:28;10.10;99.90
4874;DHT22;2451;49.970;9.068;2022-12-29T18:46:54;10.10;99.90
4874;DHT22;2451;49.970;9.068;2022-12-29T18:49:20;10.10;99.90
4874;DHT22;2451;49.970;9.068;2022-12-29T18:51:46;10.10;99.90